Terminal Aerodrome Forecast
Issued by NWS Sioux Falls, SD

Home | Current Version | Previous Version | Text Only | Print | Product List | Glossary On
Versions: 1 2 3 4 5 6 7 8 9 10 11 12 13 14 15
000
FTUS43 KFSD 150500
TAFHON
TAF
KHON 150520Z 1506/1606 VRB03KT P6SM SKC
     FM151300 15008KT P6SM FEW150
     FM151600 16012KT P6SM SCT120
     FM151900 16016G23KT P6SM BKN110
     FM160100 14013KT P6SM OVC090=

USA.gov is the U.S. government's official web portal to all federal, state and local government web resources and services.